createdAt,value
2022-11-05T00:00:20.134Z,8.50
2022-11-05T00:03:05.661Z,8.50
2022-11-05T00:05:51.157Z,8.50
2022-11-05T00:08:36.621Z,8.50
2022-11-05T00:11:03.417Z,8.40
2022-11-05T00:13:48.621Z,8.40
2022-11-05T00:16:41.478Z,8.40
2022-11-05T00:19:08.967Z,8.40
2022-11-05T00:21:57.138Z,8.50
2022-11-05T00:24:43.491Z,8.50
2022-11-05T00:27:10.670Z,8.40
2022-11-05T00:29:37.652Z,8.50
2022-11-05T00:32:04.648Z,8.50
2022-11-05T00:34:31.925Z,8.50
2022-11-05T00:36:58.610Z,8.50
2022-11-05T00:39:25.325Z,8.50
2022-11-05T00:42:12.012Z,8.50
2022-11-05T00:44:57.358Z,8.50
2022-11-05T00:47:42.741Z,8.50
2022-11-05T00:50:11.007Z,8.60
2022-11-05T00:52:56.837Z,8.60
2022-11-05T00:55:25.093Z,8.60
2022-11-05T00:57:51.813Z,8.60
2022-11-05T01:00:18.668Z,8.60
2022-11-05T01:02:45.772Z,8.60
2022-11-05T01:05:13.559Z,8.60
2022-11-05T01:07:40.347Z,8.50
2022-11-05T01:10:07.414Z,8.60
2022-11-05T01:12:34.823Z,8.50
2022-11-05T01:15:01.876Z,8.60
2022-11-05T01:17:28.615Z,8.50
2022-11-05T01:19:55.444Z,8.50
2022-11-05T01:22:22.489Z,8.50
2022-11-05T01:24:49.177Z,8.50
2022-11-05T01:27:16.080Z,8.60
2022-11-05T01:29:42.944Z,8.50
2022-11-05T01:32:09.718Z,8.50
2022-11-05T01:34:36.517Z,8.50
2022-11-05T01:37:03.249Z,8.50
2022-11-05T01:39:29.922Z,8.60
2022-11-05T01:41:56.833Z,8.60
2022-11-05T01:44:59.380Z,8.60
2022-11-05T01:47:38.654Z,8.50
2022-11-05T01:50:30.498Z,8.50
2022-11-05T01:53:03.871Z,8.50
2022-11-05T01:55:36.866Z,8.50
2022-11-05T01:58:07.582Z,8.50
2022-11-05T02:00:35.540Z,8.40
2022-11-05T02:03:02.577Z,8.40
2022-11-05T02:05:29.580Z,8.40
2022-11-05T02:07:56.566Z,8.40
2022-11-05T02:10:24.238Z,8.30
2022-11-05T02:12:51.111Z,8.30
2022-11-05T02:15:27.442Z,8.30
2022-11-05T02:18:19.204Z,8.30
2022-11-05T02:21:07.215Z,8.30
2022-11-05T02:23:51.897Z,8.40
2022-11-05T02:26:33.793Z,8.30
2022-11-05T02:29:19.063Z,8.40
2022-11-05T02:31:54.946Z,8.40
2022-11-05T02:34:31.462Z,8.40
2022-11-05T02:37:23.867Z,8.40
2022-11-05T02:39:59.133Z,8.40
2022-11-05T02:42:57.159Z,8.40
2022-11-05T02:45:58.851Z,8.50
2022-11-05T02:48:59.181Z,8.50
2022-11-05T02:51:35.011Z,8.50
2022-11-05T02:54:16.265Z,8.50
2022-11-05T02:56:47.216Z,8.50
2022-11-05T02:59:14.233Z,8.50
2022-11-05T03:01:42.511Z,8.50
2022-11-05T03:04:12.266Z,8.70
2022-11-05T03:07:00.510Z,8.60
2022-11-05T03:09:50.652Z,8.70
2022-11-05T03:12:29.653Z,8.70
2022-11-05T03:15:17.700Z,8.70
2022-11-05T03:17:59.906Z,8.70
2022-11-05T03:20:40.663Z,8.70
2022-11-05T03:23:19.785Z,8.70
2022-11-05T03:25:54.746Z,8.70
2022-11-05T03:28:25.645Z,8.70
2022-11-05T03:30:56.862Z,8.80
2022-11-05T03:33:27.736Z,8.80
2022-11-05T03:35:57.343Z,8.80
2022-11-05T03:38:37.334Z,8.90
2022-11-05T03:41:08.614Z,8.80
2022-11-05T03:43:39.938Z,8.90
2022-11-05T03:46:11.460Z,9.00
2022-11-05T03:48:46.530Z,8.90
2022-11-05T03:51:30.407Z,8.90
2022-11-05T03:53:59.743Z,8.80
2022-11-05T03:56:34.353Z,8.90
2022-11-05T03:59:02.787Z,8.90
2022-11-05T04:01:30.584Z,9.00
2022-11-05T04:03:57.689Z,9.00
2022-11-05T04:06:42.973Z,9.00
2022-11-05T04:09:29.129Z,9.00
2022-11-05T04:12:14.619Z,9.00
2022-11-05T04:14:41.386Z,9.00
2022-11-05T04:17:09.708Z,9.00
2022-11-05T04:20:01.414Z,9.00
2022-11-05T04:22:49.017Z,9.00
2022-11-05T04:25:17.707Z,9.00
2022-11-05T04:27:45.205Z,9.00
2022-11-05T04:30:20.140Z,9.10
2022-11-05T04:33:25.339Z,9.10
2022-11-05T04:35:52.031Z,9.00
2022-11-05T04:38:19.975Z,9.10
2022-11-05T04:40:49.978Z,9.10
2022-11-05T04:43:19.266Z,9.10
2022-11-05T04:45:47.839Z,9.10
2022-11-05T04:48:14.517Z,9.10
2022-11-05T04:50:41.194Z,9.10
2022-11-05T04:53:08.141Z,9.10
2022-11-05T04:55:34.988Z,9.00
2022-11-05T04:58:01.672Z,9.00
2022-11-05T05:00:28.483Z,9.10
2022-11-05T05:02:55.202Z,9.00
2022-11-05T05:05:23.042Z,9.00
2022-11-05T05:07:50.041Z,9.00
2022-11-05T05:10:16.804Z,9.00
2022-11-05T05:12:43.492Z,9.00
2022-11-05T05:15:10.374Z,9.00
2022-11-05T05:17:37.073Z,9.00
2022-11-05T05:20:22.373Z,9.00
2022-11-05T05:22:53.998Z,9.00
2022-11-05T05:25:21.192Z,9.00
2022-11-05T05:27:47.973Z,9.00
2022-11-05T05:30:14.764Z,9.00
2022-11-05T05:32:41.515Z,9.00
2022-11-05T05:35:08.700Z,9.00
2022-11-05T05:37:35.430Z,9.00
2022-11-05T05:40:02.101Z,9.00
2022-11-05T05:42:28.815Z,9.00
2022-11-05T05:44:55.481Z,9.00
2022-11-05T05:47:24.428Z,9.00
2022-11-05T05:49:51.261Z,9.00
2022-11-05T05:52:18.311Z,9.00
2022-11-05T05:54:47.536Z,8.90
2022-11-05T05:57:14.261Z,8.90
2022-11-05T05:59:40.956Z,8.90
2022-11-05T06:02:07.834Z,8.90
2022-11-05T06:04:34.596Z,8.90
2022-11-05T06:07:01.318Z,8.90
2022-11-05T06:09:28.018Z,8.90
2022-11-05T06:11:54.798Z,9.00
2022-11-05T06:14:21.491Z,8.90
2022-11-05T06:16:48.238Z,9.00
2022-11-05T06:19:15.013Z,9.00
2022-11-05T06:21:44.598Z,9.00
2022-11-05T06:24:11.545Z,9.10
2022-11-05T06:26:43.120Z,9.10
2022-11-05T06:29:13.338Z,9.10
2022-11-05T06:31:40.212Z,9.20
2022-11-05T06:34:09.365Z,9.20
2022-11-05T06:36:36.302Z,9.20
2022-11-05T06:39:03.133Z,9.20
2022-11-05T06:41:29.930Z,9.20
2022-11-05T06:43:56.650Z,9.30
2022-11-05T06:46:23.323Z,9.30
2022-11-05T06:48:51.014Z,9.40
2022-11-05T06:51:17.922Z,9.50
2022-11-05T06:53:44.633Z,9.40
2022-11-05T06:56:11.483Z,9.40
2022-11-05T06:58:38.239Z,9.40
2022-11-05T07:01:10.683Z,9.50
2022-11-05T07:03:38.712Z,9.50
2022-11-05T07:06:07.076Z,9.50
2022-11-05T07:08:37.086Z,9.50
2022-11-05T07:11:04.558Z,9.50
2022-11-05T07:13:31.589Z,9.50
2022-11-05T07:15:58.382Z,9.50
2022-11-05T07:18:25.274Z,9.60
2022-11-05T07:20:52.038Z,9.60
2022-11-05T07:23:18.726Z,9.60
2022-11-05T07:25:45.541Z,9.60
2022-11-05T07:28:14.336Z,9.60
2022-11-05T07:30:41.474Z,9.60
2022-11-05T07:33:08.816Z,9.60
2022-11-05T07:35:35.876Z,9.60
2022-11-05T07:38:02.901Z,9.70
2022-11-05T07:40:30.482Z,9.70
2022-11-05T07:42:59.369Z,9.70
2022-11-05T07:45:30.134Z,9.60
2022-11-05T07:48:01.731Z,9.60
2022-11-05T07:50:31.052Z,9.60
2022-11-05T07:53:01.921Z,9.60
2022-11-05T07:55:28.791Z,9.60
2022-11-05T07:57:55.696Z,9.60
2022-11-05T08:00:24.036Z,9.60
2022-11-05T08:02:58.621Z,9.60
2022-11-05T08:05:30.345Z,9.60
2022-11-05T08:07:58.277Z,9.60
2022-11-05T08:10:26.075Z,9.60
2022-11-05T08:12:54.072Z,9.60
2022-11-05T08:15:21.284Z,9.60
2022-11-05T08:17:48.355Z,9.60
2022-11-05T08:20:15.327Z,9.60
2022-11-05T08:22:43.615Z,9.50
2022-11-05T08:25:11.894Z,9.50
2022-11-05T08:27:39.856Z,9.50
2022-11-05T08:30:09.553Z,9.60
2022-11-05T08:32:38.469Z,9.50
2022-11-05T08:35:05.659Z,9.60
2022-11-05T08:37:32.856Z,9.60
2022-11-05T08:39:59.638Z,9.60
2022-11-05T08:42:26.379Z,9.70
2022-11-05T08:44:53.141Z,9.70
2022-11-05T08:47:19.806Z,9.70
2022-11-05T08:49:46.469Z,9.70
2022-11-05T08:52:13.229Z,9.70
2022-11-05T08:54:39.908Z,9.80
2022-11-05T08:57:06.604Z,9.80
2022-11-05T08:59:33.291Z,9.80
2022-11-05T09:02:00.162Z,9.90
2022-11-05T09:04:26.933Z,9.80
2022-11-05T09:06:53.691Z,9.80
2022-11-05T09:09:20.384Z,9.80
2022-11-05T09:12:11.214Z,9.80
2022-11-05T09:14:33.874Z,9.80
2022-11-05T09:17:00.663Z,9.80
2022-11-05T09:19:27.535Z,9.80
2022-11-05T09:21:54.766Z,9.80
2022-11-05T09:24:21.458Z,9.80
2022-11-05T09:26:48.307Z,9.80
2022-11-05T09:29:14.992Z,9.90
2022-11-05T09:31:42.100Z,9.80
2022-11-05T09:34:08.957Z,9.90
2022-11-05T09:36:35.616Z,9.80
2022-11-05T09:39:02.644Z,9.90
2022-11-05T09:41:39.212Z,9.90
2022-11-05T09:44:15.853Z,9.90
2022-11-05T09:46:59.340Z,9.90
2022-11-05T09:49:50.316Z,9.90
2022-11-05T09:52:23.220Z,9.90
2022-11-05T09:54:50.448Z,9.90
2022-11-05T09:57:21.981Z,9.90
2022-11-05T09:59:55.687Z,9.90
2022-11-05T10:02:34.548Z,9.90
2022-11-05T10:05:09.962Z,9.90
2022-11-05T10:07:58.880Z,9.90
2022-11-05T10:10:29.059Z,9.90
2022-11-05T10:13:21.137Z,10.00
2022-11-05T10:16:15.223Z,10.00
2022-11-05T10:18:46.109Z,9.90
2022-11-05T10:21:27.970Z,10.00
2022-11-05T10:24:16.202Z,10.00
2022-11-05T10:26:46.647Z,9.90
2022-11-05T10:29:25.596Z,10.00
2022-11-05T10:31:54.365Z,9.90
2022-11-05T10:34:23.518Z,10.00
2022-11-05T10:36:50.242Z,10.00
2022-11-05T10:39:19.753Z,10.00
2022-11-05T10:42:25.136Z,10.00
2022-11-05T10:45:04.678Z,10.00
2022-11-05T10:47:50.471Z,10.00
2022-11-05T10:50:20.521Z,10.00
2022-11-05T10:53:11.186Z,10.00
2022-11-05T10:55:43.471Z,10.00
2022-11-05T10:58:16.442Z,10.00
2022-11-05T11:01:07.930Z,10.00
2022-11-05T11:03:52.386Z,10.00
2022-11-05T11:06:26.643Z,10.00
2022-11-05T11:08:57.224Z,10.00
2022-11-05T11:11:31.612Z,10.00
2022-11-05T11:13:59.748Z,10.00
2022-11-05T11:16:31.107Z,10.00
2022-11-05T11:19:03.393Z,10.00
2022-11-05T11:21:32.041Z,10.00
2022-11-05T11:24:04.407Z,10.10
2022-11-05T11:26:37.218Z,10.00
2022-11-05T11:29:20.330Z,10.10
2022-11-05T11:31:47.139Z,10.10
2022-11-05T11:34:23.134Z,10.10
2022-11-05T11:36:54.436Z,10.10
2022-11-05T11:39:25.349Z,10.10
2022-11-05T11:41:55.950Z,10.20
2022-11-05T11:44:27.404Z,10.10
2022-11-05T11:46:58.466Z,10.10
2022-11-05T11:49:49.764Z,10.10
2022-11-05T11:52:25.194Z,10.00
2022-11-05T11:54:55.215Z,10.10
2022-11-05T11:57:29.350Z,10.10
2022-11-05T12:00:14.370Z,10.00
2022-11-05T12:03:14.378Z,10.10
2022-11-05T12:06:03.386Z,10.10
2022-11-05T12:08:30.063Z,10.00
2022-11-05T12:11:00.337Z,10.00
2022-11-05T12:13:35.353Z,10.00
2022-11-05T12:16:14.128Z,10.00
2022-11-05T12:19:11.289Z,10.00
2022-11-05T12:21:54.714Z,10.00
2022-11-05T12:24:36.567Z,10.00
2022-11-05T12:27:33.510Z,10.00
2022-11-05T12:30:13.710Z,9.90
2022-11-05T12:33:01.449Z,10.00
2022-11-05T12:35:44.207Z,10.00
2022-11-05T12:38:52.514Z,9.90
2022-11-05T12:41:25.121Z,9.90
2022-11-05T12:44:09.918Z,9.90
2022-11-05T12:47:07.290Z,9.90
2022-11-05T12:49:59.921Z,9.90
2022-11-05T12:52:46.871Z,9.90
2022-11-05T12:55:23.902Z,9.90
2022-11-05T12:57:54.701Z,9.90
2022-11-05T13:00:26.911Z,9.90
2022-11-05T13:03:12.853Z,9.80
2022-11-05T13:05:47.778Z,9.90
2022-11-05T13:08:46.041Z,9.80
2022-11-05T13:11:47.976Z,9.80
2022-11-05T13:14:30.840Z,9.80
2022-11-05T13:17:13.976Z,9.80
2022-11-05T13:20:06.344Z,9.80
2022-11-05T13:22:46.202Z,9.80
2022-11-05T13:25:29.212Z,9.80
2022-11-05T13:28:16.869Z,9.80
2022-11-05T13:30:51.673Z,9.80
2022-11-05T13:33:41.652Z,9.80
2022-11-05T13:36:29.917Z,9.80
2022-11-05T13:39:14.682Z,9.70
2022-11-05T13:42:03.914Z,9.70
2022-11-05T13:44:40.037Z,9.70
2022-11-05T13:47:27.905Z,9.70
2022-11-05T13:50:16.041Z,9.70
2022-11-05T13:52:48.644Z,9.70
2022-11-05T13:55:28.891Z,9.70
2022-11-05T13:58:32.298Z,9.70
2022-11-05T14:01:21.681Z,9.60
2022-11-05T14:03:51.301Z,9.60
2022-11-05T14:06:31.301Z,9.70
2022-11-05T14:09:02.462Z,9.70
2022-11-05T14:11:36.526Z,9.70
2022-11-05T14:14:07.963Z,9.70
2022-11-05T14:16:49.280Z,9.60
2022-11-05T14:19:18.869Z,9.70
2022-11-05T14:21:57.738Z,9.70
2022-11-05T14:24:38.306Z,9.70
2022-11-05T14:27:05.166Z,9.70
2022-11-05T14:29:46.341Z,9.60
2022-11-05T14:32:23.011Z,9.70
2022-11-05T14:35:03.980Z,9.60
2022-11-05T14:37:55.280Z,9.60
2022-11-05T14:40:21.957Z,9.60
2022-11-05T14:42:54.829Z,9.60
2022-11-05T14:45:38.821Z,9.60
2022-11-05T14:48:22.616Z,9.60
2022-11-05T14:50:49.865Z,9.50
2022-11-05T14:53:34.137Z,9.60
2022-11-05T14:56:13.349Z,9.60
2022-11-05T14:58:42.571Z,9.60
2022-11-05T15:01:32.049Z,9.50
2022-11-05T15:04:17.772Z,9.50
2022-11-05T15:07:04.883Z,9.60
2022-11-05T15:10:02.285Z,9.50
2022-11-05T15:12:48.866Z,9.50
2022-11-05T15:15:23.626Z,9.50
2022-11-05T15:18:12.247Z,9.50
2022-11-05T15:20:44.125Z,9.50
2022-11-05T15:23:15.527Z,9.50
2022-11-05T15:26:13.914Z,9.50
2022-11-05T15:28:47.922Z,9.50
2022-11-05T15:31:14.678Z,9.50
2022-11-05T15:33:43.211Z,9.50
2022-11-05T15:36:19.775Z,9.50
2022-11-05T15:39:08.258Z,9.40
2022-11-05T15:41:34.680Z,9.40
2022-11-05T15:44:02.755Z,9.40
2022-11-05T15:46:29.889Z,9.40
2022-11-05T15:49:14.654Z,9.40
2022-11-05T15:51:43.942Z,9.40
2022-11-05T15:54:36.060Z,9.40
2022-11-05T15:57:03.639Z,9.40
2022-11-05T15:59:30.893Z,9.40
2022-11-05T16:02:05.393Z,9.40
2022-11-05T16:04:34.777Z,9.40
2022-11-05T16:07:11.824Z,9.40
2022-11-05T16:09:43.589Z,9.40
2022-11-05T16:12:24.149Z,9.30
2022-11-05T16:15:29.471Z,9.40
2022-11-05T16:18:00.776Z,9.40
2022-11-05T16:20:33.391Z,9.40
2022-11-05T16:23:21.630Z,9.40
2022-11-05T16:25:48.602Z,9.40
2022-11-05T16:28:27.502Z,9.40
2022-11-05T16:30:54.151Z,9.40
2022-11-05T16:33:21.163Z,9.40
2022-11-05T16:35:51.299Z,9.30
2022-11-05T16:38:22.087Z,9.40
2022-11-05T16:40:48.779Z,9.40
2022-11-05T16:43:24.547Z,9.40
2022-11-05T16:45:57.151Z,9.30
2022-11-05T16:48:24.397Z,9.30
2022-11-05T16:50:51.571Z,9.30
2022-11-05T16:53:18.251Z,9.40
2022-11-05T16:55:46.210Z,9.30
2022-11-05T16:58:20.775Z,9.30
2022-11-05T17:00:52.573Z,9.30
2022-11-05T17:03:19.411Z,9.30
2022-11-05T17:05:46.543Z,9.30
2022-11-05T17:08:13.641Z,9.30
2022-11-05T17:10:40.697Z,9.30
2022-11-05T17:13:07.433Z,9.30
2022-11-05T17:15:37.334Z,9.30
2022-11-05T17:18:05.369Z,9.30
2022-11-05T17:20:40.781Z,9.30
2022-11-05T17:23:28.804Z,9.30
2022-11-05T17:26:06.647Z,9.30
2022-11-05T17:28:34.369Z,9.30
2022-11-05T17:31:02.839Z,9.20
2022-11-05T17:33:29.774Z,9.30
2022-11-05T17:35:56.954Z,9.20
2022-11-05T17:38:25.319Z,9.20
2022-11-05T17:40:52.931Z,9.20
2022-11-05T17:43:20.557Z,9.20
2022-11-05T17:45:49.904Z,9.20
2022-11-05T17:48:17.110Z,9.30
2022-11-05T17:50:46.105Z,9.20
2022-11-05T17:53:13.800Z,9.20
2022-11-05T17:55:45.874Z,9.30
2022-11-05T17:58:13.192Z,9.30
2022-11-05T18:00:41.647Z,9.30
2022-11-05T18:03:10.815Z,9.30
2022-11-05T18:05:38.253Z,9.30
2022-11-05T18:08:05.451Z,9.20
2022-11-05T18:10:33.065Z,9.20
2022-11-05T18:12:59.750Z,9.20
2022-11-05T18:15:26.461Z,9.20
2022-11-05T18:17:53.126Z,9.10
2022-11-05T18:20:19.969Z,9.10
2022-11-05T18:22:49.592Z,9.20
2022-11-05T18:25:16.623Z,9.10
2022-11-05T18:27:43.484Z,9.10
2022-11-05T18:30:13.937Z,9.10
2022-11-05T18:32:40.689Z,9.10
2022-11-05T18:35:07.727Z,9.00
2022-11-05T18:37:34.468Z,9.00
2022-11-05T18:40:01.181Z,9.00
2022-11-05T18:42:27.858Z,9.00
2022-11-05T18:44:54.638Z,9.00
2022-11-05T18:47:21.309Z,9.00
2022-11-05T18:49:47.989Z,9.00
2022-11-05T18:52:14.911Z,9.00
2022-11-05T18:54:41.635Z,8.90
2022-11-05T18:57:08.609Z,8.90
2022-11-05T18:59:38.263Z,8.90
2022-11-05T19:02:07.441Z,8.90
2022-11-05T19:04:36.140Z,8.90
2022-11-05T19:07:05.571Z,8.90
2022-11-05T19:09:34.098Z,8.90
2022-11-05T19:12:01.214Z,8.90
2022-11-05T19:14:28.118Z,8.90
2022-11-05T19:16:54.827Z,8.90
2022-11-05T19:19:21.522Z,8.80
2022-11-05T19:21:48.242Z,8.90
2022-11-05T19:24:18.012Z,8.90
2022-11-05T19:26:45.016Z,8.80
2022-11-05T19:29:11.817Z,8.80
2022-11-05T19:31:38.989Z,8.80
2022-11-05T19:34:05.777Z,8.70
2022-11-05T19:36:33.826Z,8.80
2022-11-05T19:39:04.650Z,8.70
2022-11-05T19:41:31.331Z,8.80
2022-11-05T19:43:59.154Z,8.70
2022-11-05T19:46:26.106Z,8.80
2022-11-05T19:48:53.207Z,8.80
2022-11-05T19:51:23.401Z,8.70
2022-11-05T19:53:52.396Z,8.70
2022-11-05T19:56:23.544Z,8.80
2022-11-05T19:58:50.821Z,8.70
2022-11-05T20:01:18.904Z,8.80
2022-11-05T20:03:46.503Z,8.80
2022-11-05T20:06:16.259Z,8.70
2022-11-05T20:09:14.783Z,8.80
2022-11-05T20:11:31.192Z,8.70
2022-11-05T20:13:58.169Z,8.80
2022-11-05T20:16:32.247Z,8.70
2022-11-05T20:18:58.962Z,8.70
2022-11-05T20:21:26.666Z,8.70
2022-11-05T20:23:56.710Z,8.70
2022-11-05T20:26:23.466Z,8.80
2022-11-05T20:28:50.263Z,8.80
2022-11-05T20:31:18.442Z,8.80
2022-11-05T20:33:45.885Z,8.70
2022-11-05T20:36:16.420Z,8.70
2022-11-05T20:38:44.691Z,8.70
2022-11-05T20:41:14.517Z,8.80
2022-11-05T20:43:41.536Z,8.70
2022-11-05T20:46:09.394Z,8.70
2022-11-05T20:48:36.455Z,8.70
2022-11-05T20:51:08.940Z,8.70
2022-11-05T20:53:36.510Z,8.70
2022-11-05T20:56:07.808Z,8.70
2022-11-05T20:58:36.042Z,8.70
2022-11-05T21:01:04.088Z,8.70
2022-11-05T21:03:31.222Z,8.70
2022-11-05T21:06:00.687Z,8.80
2022-11-05T21:08:28.285Z,8.80
2022-11-05T21:10:56.379Z,8.70
2022-11-05T21:13:23.765Z,8.70
2022-11-05T21:15:53.673Z,8.70
2022-11-05T21:18:23.544Z,8.80
2022-11-05T21:20:50.772Z,8.70
2022-11-05T21:23:18.306Z,8.80
2022-11-05T21:25:45.820Z,8.80
2022-11-05T21:28:13.872Z,8.80
2022-11-05T21:30:44.946Z,8.80
2022-11-05T21:33:12.897Z,8.80
2022-11-05T21:35:45.055Z,8.80
2022-11-05T21:38:14.548Z,8.80
2022-11-05T21:40:41.734Z,8.80
2022-11-05T21:43:09.172Z,8.80
2022-11-05T21:45:41.137Z,8.80
2022-11-05T21:48:08.725Z,8.80
2022-11-05T21:50:57.005Z,8.80
2022-11-05T21:53:42.659Z,8.80
2022-11-05T21:56:40.576Z,8.80
2022-11-05T21:59:28.703Z,8.80
2022-11-05T22:02:01.357Z,8.80
2022-11-05T22:04:35.492Z,8.90
2022-11-05T22:07:03.989Z,8.80
2022-11-05T22:09:31.254Z,8.80
2022-11-05T22:11:58.048Z,8.80
2022-11-05T22:14:25.032Z,8.80
2022-11-05T22:16:52.108Z,8.90
2022-11-05T22:19:21.002Z,8.80
2022-11-05T22:21:48.071Z,8.80
2022-11-05T22:24:15.139Z,8.80
2022-11-05T22:26:42.914Z,8.80
2022-11-05T22:29:10.127Z,8.80
2022-11-05T22:31:37.017Z,8.80
2022-11-05T22:34:05.270Z,8.80
2022-11-05T22:36:35.495Z,8.80
2022-11-05T22:39:03.023Z,8.80
2022-11-05T22:41:29.868Z,8.80
2022-11-05T22:43:57.376Z,8.80
2022-11-05T22:46:26.660Z,8.80
2022-11-05T22:48:54.054Z,8.80
2022-11-05T22:51:23.661Z,8.80
2022-11-05T22:53:51.056Z,8.80
2022-11-05T22:56:20.607Z,8.80
2022-11-05T22:58:48.134Z,8.80
2022-11-05T23:01:16.016Z,8.80
2022-11-05T23:03:45.061Z,8.80
2022-11-05T23:06:37.543Z,8.80
2022-11-05T23:09:33.318Z,8.80
2022-11-05T23:12:00.834Z,8.80
2022-11-05T23:14:27.923Z,8.80
2022-11-05T23:17:13.149Z,8.80
2022-11-05T23:20:18.880Z,8.80
2022-11-05T23:23:04.402Z,8.80
2022-11-05T23:25:31.206Z,8.70
2022-11-05T23:27:57.914Z,8.70
2022-11-05T23:30:26.710Z,8.70
2022-11-05T23:32:53.685Z,8.70
2022-11-05T23:35:43.227Z,8.70
2022-11-05T23:38:28.851Z,8.70
2022-11-05T23:41:21.631Z,8.80
2022-11-05T23:44:07.122Z,8.70
2022-11-05T23:46:52.569Z,8.70
2022-11-05T23:49:19.436Z,8.80
2022-11-05T23:51:46.584Z,8.70
2022-11-05T23:54:13.480Z,8.80
2022-11-05T23:56:40.274Z,8.80
2022-11-05T23:59:07.402Z,8.70
